Time;durP1;ratioP1;P1;durP2;ratioP2;P2;SDS_P1;SDS_P2;PMS_P1;PMS_P2;Temp;Humidity;BMP_temperature;BMP_pressure;BME280_temperature;BME280_humidity;BME280_pressure;Samples;Min_cycle;Max_cycle;Signal;HPM_P1;HPM_P2
2022/10/17 00:00:35;;;;;;;9.15;4.07;;;13.50;99.90;;;;;;5021609;28;20092;-79
2022/10/17 00:03:01;;;;;;;8.43;4.15;;;13.40;99.90;;;;;;5000607;28;20056;-80
2022/10/17 00:05:27;;;;;;;11.75;4.05;;;13.40;99.90;;;;;;4993260;28;20073;-79
2022/10/17 00:07:53;;;;;;;12.07;4.30;;;13.40;99.90;;;;;;5012868;28;20038;-79
2022/10/17 00:10:20;;;;;;;11.90;4.35;;;13.50;99.90;;;;;;5014804;28;20156;-79
2022/10/17 00:12:46;;;;;;;10.15;4.70;;;13.40;99.90;;;;;;5011993;28;20041;-79
2022/10/17 00:15:17;;;;;;;13.75;4.90;;;13.40;99.90;;;;;;4998128;28;20160;-79
2022/10/17 00:17:43;;;;;;;9.85;4.97;;;13.40;99.90;;;;;;4995730;28;20117;-79
2022/10/17 00:20:09;;;;;;;10.43;5.65;;;13.40;99.90;;;;;;5017983;28;20116;-78
2022/10/17 00:22:35;;;;;;;13.48;6.07;;;13.50;99.90;;;;;;5005459;28;20391;-78
2022/10/17 00:25:01;;;;;;;11.82;6.15;;;13.40;99.90;;;;;;5000365;28;20041;-78
2022/10/17 00:27:26;;;;;;;12.60;5.72;;;13.50;99.90;;;;;;4994395;28;20060;-79
2022/10/17 00:29:52;;;;;;;14.75;5.38;;;13.50;99.90;;;;;;5015007;28;20034;-79
2022/10/17 00:32:19;;;;;;;9.23;5.47;;;13.50;99.90;;;;;;5007422;28;20152;-79
2022/10/17 00:34:45;;;;;;;10.48;5.20;;;13.50;99.90;;;;;;4996254;28;20464;-79
2022/10/17 00:37:10;;;;;;;9.15;5.38;;;13.50;99.90;;;;;;5025363;28;20068;-79
2022/10/17 00:39:37;;;;;;;12.18;5.95;;;13.50;99.90;;;;;;5017215;28;20103;-78
2022/10/17 00:42:03;;;;;;;12.32;6.20;;;13.50;99.90;;;;;;5004175;28;20127;-77
2022/10/17 00:44:28;;;;;;;10.23;5.40;;;13.60;99.90;;;;;;5008743;28;20037;-78
2022/10/17 00:46:55;;;;;;;10.40;5.78;;;13.50;99.90;;;;;;5012425;28;20041;-79
2022/10/17 00:49:23;;;;;;;10.65;6.05;;;13.60;99.90;;;;;;5018418;28;20042;-78
2022/10/17 00:51:53;;;;;;;11.73;5.85;;;13.60;99.90;;;;;;4994493;28;20052;-78
2022/10/17 00:54:23;;;;;;;10.70;6.05;;;13.70;99.90;;;;;;4997049;28;20045;-79
2022/10/17 00:56:49;;;;;;;10.43;5.85;;;13.60;99.90;;;;;;5012778;28;20133;-79
2022/10/17 00:59:18;;;;;;;8.73;5.57;;;13.60;99.90;;;;;;5009341;28;20034;-79
2022/10/17 01:01:52;;;;;;;11.57;5.80;;;13.60;99.90;;;;;;5021121;28;20045;-79
2022/10/17 01:04:18;;;;;;;7.55;5.78;;;13.60;99.90;;;;;;5021014;28;20406;-78
2022/10/17 01:06:44;;;;;;;9.40;5.57;;;13.60;99.90;;;;;;5007296;28;20037;-78
2022/10/17 01:09:09;;;;;;;10.27;5.53;;;13.70;99.90;;;;;;5033788;28;20104;-79
2022/10/17 01:11:51;;;;;;;10.13;5.72;;;13.60;99.90;;;;;;4999897;28;20045;-79
2022/10/17 01:14:16;;;;;;;8.10;6.00;;;13.50;99.90;;;;;;5002399;28;20487;-79
2022/10/17 01:16:58;;;;;;;8.32;5.90;;;13.60;99.90;;;;;;5000113;28;20176;-79
2022/10/17 01:19:32;;;;;;;7.97;5.53;;;13.50;99.90;;;;;;5012542;28;20446;-79
2022/10/17 01:22:24;;;;;;;8.60;5.93;;;13.50;99.90;;;;;;4997391;28;20304;-79
2022/10/17 01:25:15;;;;;;;9.07;5.88;;;13.50;99.90;;;;;;4993102;28;20056;-79
2022/10/17 01:28:13;;;;;;;8.90;6.57;;;13.50;99.90;;;;;;4994271;28;20057;-78
2022/10/17 01:31:01;;;;;;;9.60;6.45;;;13.40;99.90;;;;;;5007780;28;20042;-78
2022/10/17 01:33:36;;;;;;;11.15;6.30;;;13.40;99.90;;;;;;4983423;28;20056;-78
2022/10/17 01:36:14;;;;;;;9.73;7.00;;;13.40;99.90;;;;;;5016223;28;20125;-79
2022/10/17 01:38:56;;;;;;;10.25;6.50;;;13.40;99.90;;;;;;4993750;28;20045;-79
2022/10/17 01:41:38;;;;;;;9.23;6.43;;;13.40;99.90;;;;;;5010597;28;20088;-78
2022/10/17 01:44:17;;;;;;;11.82;6.70;;;13.40;99.90;;;;;;5001759;28;20048;-79
2022/10/17 01:46:48;;;;;;;9.90;6.05;;;13.30;99.90;;;;;;5020108;28;20053;-79
2022/10/17 01:49:17;;;;;;;10.25;6.82;;;13.30;99.90;;;;;;5010609;28;20439;-79
2022/10/17 01:52:15;;;;;;;8.65;6.15;;;13.40;99.90;;;;;;5010548;28;20038;-79
2022/10/17 01:54:46;;;;;;;11.00;6.55;;;13.30;99.90;;;;;;4993340;28;20131;-78
2022/10/17 01:57:23;;;;;;;8.70;6.43;;;13.30;99.90;;;;;;5024847;28;20072;-78
2022/10/17 01:59:54;;;;;;;10.55;7.13;;;13.30;99.90;;;;;;5023774;28;20504;-79
2022/10/17 02:02:20;;;;;;;8.63;6.93;;;13.20;99.90;;;;;;5027389;28;20510;-79
2022/10/17 02:04:49;;;;;;;9.98;7.10;;;13.30;99.90;;;;;;5004285;28;20049;-79
2022/10/17 02:07:15;;;;;;;9.63;6.70;;;13.30;99.90;;;;;;5006496;28;20050;-79
2022/10/17 02:09:41;;;;;;;13.00;7.43;;;13.30;99.90;;;;;;4997366;28;20053;-79
2022/10/17 02:12:15;;;;;;;10.25;8.05;;;13.30;99.90;;;;;;5006106;28;20049;-79
2022/10/17 02:15:04;;;;;;;10.43;7.18;;;13.30;99.90;;;;;;5018393;28;20046;-79
2022/10/17 02:17:59;;;;;;;11.43;7.53;;;13.20;99.90;;;;;;4996796;28;20403;-79
2022/10/17 02:20:27;;;;;;;10.65;7.47;;;13.30;99.90;;;;;;5014435;28;20050;-79
2022/10/17 02:23:00;;;;;;;12.30;7.75;;;13.60;99.90;;;;;;4991913;28;20137;-79
2022/10/17 02:25:53;;;;;;;11.48;7.47;;;13.40;99.90;;;;;;5029918;28;20037;-79
2022/10/17 02:28:35;;;;;;;10.85;7.70;;;13.30;99.90;;;;;;4982443;28;20042;-79
2022/10/17 02:31:03;;;;;;;;;;;13.30;99.90;;;;;;5016195;28;20053;-79
2022/10/17 02:33:40;;;;;;;10.52;7.80;;;13.30;99.90;;;;;;4992049;28;19940;-79
2022/10/17 02:36:20;;;;;;;11.40;7.97;;;13.30;99.90;;;;;;5010828;28;20163;-79
2022/10/17 02:38:49;;;;;;;14.32;7.88;;;13.30;99.90;;;;;;5014209;28;20507;-79
2022/10/17 02:41:17;;;;;;;9.80;7.43;;;13.30;99.90;;;;;;5008434;28;20143;-79
2022/10/17 02:43:46;;;;;;;11.98;8.45;;;13.30;99.90;;;;;;5001129;28;20141;-79
2022/10/17 02:46:19;;;;;;;9.43;8.27;;;13.30;99.90;;;;;;5006962;28;20045;-79
2022/10/17 02:49:20;;;;;;;12.82;8.02;;;13.90;99.90;;;;;;5000653;28;20053;-79
2022/10/17 02:52:02;;;;;;;11.77;8.10;;;13.30;99.90;;;;;;4988970;28;20089;-79
2022/10/17 02:54:33;;;;;;;12.03;8.23;;;13.30;99.90;;;;;;5010699;28;20084;-79
2022/10/17 02:57:06;;;;;;;10.00;8.07;;;13.40;99.90;;;;;;4988369;28;20310;-79
2022/10/17 02:59:34;;;;;;;10.55;8.23;;;13.40;99.90;;;;;;5001726;28;20044;-79
2022/10/17 03:02:03;;;;;;;11.32;8.60;;;13.30;99.90;;;;;;5005179;28;20081;-79
2022/10/17 03:04:29;;;;;;;11.40;8.60;;;13.30;99.90;;;;;;5008341;28;20026;-79
2022/10/17 03:06:55;;;;;;;13.35;9.10;;;13.30;99.90;;;;;;5005073;28;20038;-79
2022/10/17 03:09:20;;;;;;;12.15;9.20;;;13.50;99.90;;;;;;5000460;28;20061;-79
2022/10/17 03:11:46;;;;;;;15.75;8.70;;;13.50;99.90;;;;;;5027655;28;20558;-79
2022/10/17 03:14:12;;;;;;;12.52;9.00;;;13.30;99.90;;;;;;5013948;28;20041;-79
2022/10/17 03:16:37;;;;;;;12.63;8.88;;;13.30;99.90;;;;;;5008584;28;20087;-79
2022/10/17 03:19:03;;;;;;;14.32;9.38;;;13.30;99.90;;;;;;4999332;28;20088;-79
2022/10/17 03:21:28;;;;;;;13.13;9.90;;;13.70;99.90;;;;;;5004371;28;20515;-79
2022/10/17 03:23:54;;;;;;;11.32;8.77;;;13.30;99.90;;;;;;4987303;28;20042;-79
2022/10/17 03:26:20;;;;;;;13.65;9.68;;;13.40;99.90;;;;;;5021654;28;20037;-79
2022/10/17 03:28:45;;;;;;;12.20;9.18;;;13.30;99.90;;;;;;4989359;28;20088;-79
2022/10/17 03:31:15;;;;;;;13.20;9.80;;;13.30;99.90;;;;;;5012222;28;20065;-79
2022/10/17 03:33:41;;;;;;;13.52;10.02;;;13.30;99.90;;;;;;5022772;28;20046;-79
2022/10/17 03:36:12;;;;;;;12.60;9.65;;;13.30;99.90;;;;;;4989390;28;20076;-79
2022/10/17 03:38:38;;;;;;;12.80;9.43;;;13.30;99.90;;;;;;5015865;28;20045;-79
2022/10/17 03:41:04;;;;;;;13.93;10.77;;;13.60;99.90;;;;;;5028822;28;20045;-79
2022/10/17 03:43:30;;;;;;;15.27;10.27;;;13.30;99.90;;;;;;5028458;28;20045;-79
2022/10/17 03:45:57;;;;;;;12.32;9.93;;;13.30;99.90;;;;;;4982207;28;20046;-79
2022/10/17 03:48:23;;;;;;;13.52;10.20;;;13.30;99.90;;;;;;4999147;28;20034;-79
2022/10/17 03:50:49;;;;;;;14.18;10.73;;;13.40;99.90;;;;;;5007786;28;20053;-79
2022/10/17 03:53:14;;;;;;;14.88;9.93;;;13.30;99.90;;;;;;5031175;28;20042;-79
2022/10/17 03:55:40;;;;;;;14.25;10.90;;;13.30;99.90;;;;;;5025693;28;20046;-79
2022/10/17 03:58:06;;;;;;;15.77;10.35;;;13.40;99.90;;;;;;4998513;28;20092;-79
2022/10/17 04:00:31;;;;;;;15.88;11.60;;;13.40;99.90;;;;;;4997578;28;20411;-79
2022/10/17 04:02:57;;;;;;;14.88;11.07;;;13.40;99.90;;;;;;4998006;28;20060;-79
2022/10/17 04:05:23;;;;;;;14.38;11.15;;;13.40;99.90;;;;;;5024363;28;20175;-79
2022/10/17 04:07:49;;;;;;;15.30;11.07;;;13.40;99.90;;;;;;5006782;28;20641;-79
2022/10/17 04:10:15;;;;;;;20.50;12.25;;;13.40;99.90;;;;;;5010677;28;20040;-79
2022/10/17 04:12:40;;;;;;;14.30;11.45;;;13.40;99.90;;;;;;5002225;28;20408;-79
2022/10/17 04:15:06;;;;;;;15.60;12.07;;;13.40;99.90;;;;;;5022479;28;20037;-79
2022/10/17 04:17:32;;;;;;;12.85;9.88;;;13.50;99.90;;;;;;5005279;28;20583;-79
2022/10/17 04:19:57;;;;;;;20.73;12.60;;;13.40;99.90;;;;;;5001158;28;20061;-79
2022/10/17 04:22:23;;;;;;;14.85;10.82;;;13.60;99.90;;;;;;5029393;28;20037;-79
2022/10/17 04:24:48;;;;;;;17.40;12.43;;;13.50;99.90;;;;;;5031411;28;20075;-79
2022/10/17 04:27:14;;;;;;;15.02;11.48;;;13.50;99.90;;;;;;5000619;28;20451;-79
2022/10/17 04:29:40;;;;;;;15.82;12.15;;;13.60;99.90;;;;;;4999002;28;20049;-78
2022/10/17 04:32:06;;;;;;;15.20;12.15;;;13.60;99.90;;;;;;5006720;28;20495;-79
2022/10/17 04:34:31;;;;;;;16.85;12.38;;;13.90;99.90;;;;;;5005883;28;20140;-78
2022/10/17 04:36:57;;;;;;;21.83;14.15;;;13.90;99.90;;;;;;5001524;28;20045;-79
2022/10/17 04:39:22;;;;;;;17.40;12.40;;;13.70;99.90;;;;;;5008024;28;20037;-79
2022/10/17 04:41:48;;;;;;;19.42;13.35;;;13.70;99.90;;;;;;5008656;28;20044;-79
2022/10/17 04:44:14;;;;;;;18.55;13.00;;;13.70;99.90;;;;;;5022751;28;20087;-79
2022/10/17 04:46:39;;;;;;;20.25;12.95;;;13.80;99.90;;;;;;5001257;28;20045;-79
2022/10/17 04:49:05;;;;;;;17.23;12.82;;;13.80;99.90;;;;;;4993111;28;20412;-78
2022/10/17 04:51:30;;;;;;;22.17;14.35;;;14.00;99.90;;;;;;4999668;28;20037;-79
2022/10/17 04:53:56;;;;;;;21.05;13.77;;;13.80;99.90;;;;;;5013169;28;20068;-79
2022/10/17 04:56:23;;;;;;;19.17;13.07;;;13.90;99.90;;;;;;5004881;28;20033;-79
2022/10/17 04:58:50;;;;;;;16.42;12.95;;;13.80;99.90;;;;;;5013800;28;20077;-79
2022/10/17 05:01:17;;;;;;;17.15;12.65;;;13.90;99.90;;;;;;5030326;28;20449;-79
2022/10/17 05:03:44;;;;;;;16.73;12.32;;;13.90;99.90;;;;;;4998076;28;20507;-79
2022/10/17 05:06:15;;;;;;;21.73;13.38;;;13.90;99.90;;;;;;5026911;28;20491;-78
2022/10/17 05:08:41;;;;;;;19.85;13.50;;;13.90;99.90;;;;;;5015829;28;20037;-78
2022/10/17 05:11:19;;;;;;;18.05;13.60;;;13.90;99.90;;;;;;5009165;28;20042;-78
2022/10/17 05:13:50;;;;;;;18.48;13.48;;;13.90;99.90;;;;;;5023407;28;20064;-78
2022/10/17 05:16:16;;;;;;;20.58;12.85;;;14.00;99.90;;;;;;4993444;28;20589;-79
2022/10/17 05:18:41;;;;;;;16.90;12.95;;;14.00;99.90;;;;;;5016937;28;20050;-79
2022/10/17 05:21:07;;;;;;;18.65;13.30;;;14.10;99.90;;;;;;5004966;28;20052;-79
2022/10/17 05:23:33;;;;;;;20.05;12.55;;;14.10;99.90;;;;;;5014291;28;20030;-78
2022/10/17 05:25:58;;;;;;;18.75;13.02;;;14.10;99.90;;;;;;4999347;28;20042;-79
2022/10/17 05:28:24;;;;;;;18.75;13.15;;;14.10;99.90;;;;;;5002788;28;20060;-79
2022/10/17 05:30:50;;;;;;;17.92;12.55;;;14.10;99.90;;;;;;5011846;28;20044;-79
2022/10/17 05:33:15;;;;;;;18.00;13.25;;;14.50;99.90;;;;;;5001134;28;20160;-79
2022/10/17 05:35:41;;;;;;;17.65;13.38;;;14.10;99.90;;;;;;5013625;28;20424;-80
2022/10/17 05:38:07;;;;;;;19.52;13.20;;;14.10;99.90;;;;;;5000983;28;20040;-79
2022/10/17 05:40:33;;;;;;;17.52;13.07;;;14.10;99.90;;;;;;5011926;28;20038;-81
2022/10/17 05:42:58;;;;;;;20.95;12.70;;;14.10;99.90;;;;;;5030836;28;20045;-78
2022/10/17 05:45:24;;;;;;;20.00;12.80;;;14.40;99.90;;;;;;4990720;28;20042;-79
2022/10/17 05:47:50;;;;;;;21.92;13.02;;;14.30;99.90;;;;;;4998104;28;20041;-79
2022/10/17 05:50:16;;;;;;;18.90;12.90;;;14.40;99.90;;;;;;5000698;28;20658;-78
2022/10/17 05:52:42;;;;;;;18.58;12.50;;;14.20;99.90;;;;;;5004187;28;20123;-79
2022/10/17 05:55:08;;;;;;;18.92;13.45;;;14.30;99.90;;;;;;5010520;28;20049;-79
2022/10/17 05:57:37;;;;;;;20.38;12.45;;;14.30;99.90;;;;;;5019554;28;20099;-79
2022/10/17 06:00:04;;;;;;;19.38;12.68;;;14.30;99.90;;;;;;5002589;28;20511;-79
2022/10/17 06:02:30;;;;;;;19.55;13.30;;;14.30;99.90;;;;;;5007420;28;20112;-80
2022/10/17 06:04:55;;;;;;;19.67;13.23;;;14.30;99.90;;;;;;4999518;28;20041;-79
2022/10/17 06:07:21;;;;;;;16.90;12.68;;;14.40;99.90;;;;;;4997702;28;20049;-79
2022/10/17 06:09:46;;;;;;;18.80;12.32;;;14.50;99.90;;;;;;4999869;28;20116;-79
2022/10/17 06:12:12;;;;;;;18.67;12.13;;;14.50;99.90;;;;;;5001191;28;20112;-79
2022/10/17 06:14:38;;;;;;;18.08;13.10;;;14.60;99.90;;;;;;5002851;28;20030;-79
2022/10/17 06:17:03;;;;;;;18.27;13.10;;;14.50;99.90;;;;;;5003868;28;20458;-79
2022/10/17 06:19:29;;;;;;;17.60;12.38;;;14.50;99.90;;;;;;5016104;28;20045;-79
2022/10/17 06:21:54;;;;;;;24.13;13.55;;;14.50;99.90;;;;;;4996302;28;20038;-79
2022/10/17 06:24:20;;;;;;;20.60;13.18;;;14.50;99.90;;;;;;5015529;28;20095;-79
2022/10/17 06:26:46;;;;;;;16.90;12.68;;;14.50;99.90;;;;;;4997951;28;20053;-79
2022/10/17 06:29:12;;;;;;;18.98;12.40;;;14.60;99.90;;;;;;5012101;28;20519;-79
2022/10/17 06:31:37;;;;;;;18.85;11.75;;;14.60;99.90;;;;;;4984940;28;20104;-79
2022/10/17 06:34:03;;;;;;;17.67;12.38;;;14.70;99.90;;;;;;4991000;28;20041;-79
2022/10/17 06:36:29;;;;;;;16.85;11.63;;;14.70;99.90;;;;;;5007818;28;20037;-79
2022/10/17 06:38:55;;;;;;;16.40;11.50;;;14.70;99.90;;;;;;5011363;28;20108;-79
2022/10/17 06:41:22;;;;;;;17.45;11.38;;;14.70;99.90;;;;;;4999621;28;20042;-80
2022/10/17 06:43:48;;;;;;;20.25;11.38;;;14.80;99.90;;;;;;5003700;28;20057;-80
2022/10/17 06:46:16;;;;;;;18.35;11.50;;;14.80;99.90;;;;;;5020652;28;20038;-80
2022/10/17 06:48:44;;;;;;;17.95;11.52;;;14.90;99.90;;;;;;5021090;28;20057;-81
2022/10/17 06:51:13;;;;;;;18.50;10.77;;;14.90;99.90;;;;;;5014517;28;20038;-80
2022/10/17 06:53:40;;;;;;;17.55;11.05;;;14.90;99.90;;;;;;5016696;28;20057;-80
2022/10/17 06:56:07;;;;;;;16.13;10.35;;;14.90;99.90;;;;;;5004051;28;20046;-80
2022/10/17 06:58:37;;;;;;;16.83;10.95;;;15.00;99.90;;;;;;5020324;28;20046;-79
2022/10/17 07:01:09;;;;;;;15.20;10.98;;;15.00;99.90;;;;;;5030168;28;20044;-79
2022/10/17 07:03:56;;;;;;;17.73;10.63;;;15.10;99.90;;;;;;5026774;28;20052;-78
2022/10/17 07:06:41;;;;;;;15.65;10.90;;;15.10;99.90;;;;;;5014143;28;20044;-79
2022/10/17 07:09:09;;;;;;;15.18;10.80;;;15.10;99.90;;;;;;5027350;28;20038;-79
2022/10/17 07:11:35;;;;;;;18.15;11.05;;;15.20;99.90;;;;;;5015030;28;20026;-80
2022/10/17 07:14:05;;;;;;;14.60;10.20;;;15.20;99.90;;;;;;5000473;28;20042;-80
2022/10/17 07:16:35;;;;;;;17.90;10.93;;;15.40;99.90;;;;;;5025183;28;20049;-79
2022/10/17 07:19:01;;;;;;;16.08;11.05;;;15.30;99.90;;;;;;5039441;28;20065;-80
2022/10/17 07:21:27;;;;;;;15.38;10.65;;;15.40;99.90;;;;;;5013915;28;20038;-79
2022/10/17 07:23:54;;;;;;;17.40;10.45;;;15.40;99.90;;;;;;5021109;28;20042;-79
2022/10/17 07:26:20;;;;;;;13.98;9.90;;;15.40;99.90;;;;;;5030722;28;20041;-80
2022/10/17 07:28:50;;;;;;;15.57;10.27;;;15.50;99.90;;;;;;5012905;28;20089;-79
2022/10/17 07:31:17;;;;;;;17.30;10.88;;;15.60;99.90;;;;;;5025918;28;20052;-80
2022/10/17 07:33:44;;;;;;;15.20;10.05;;;15.60;99.90;;;;;;5040802;28;20041;-80
2022/10/17 07:36:10;;;;;;;17.23;9.90;;;15.70;99.90;;;;;;5039144;28;20042;-80
2022/10/17 07:38:36;;;;;;;14.20;9.65;;;15.90;99.90;;;;;;5032970;28;20058;-79
2022/10/17 07:41:05;;;;;;;16.60;9.45;;;15.70;99.90;;;;;;5032212;28;20120;-79
2022/10/17 07:43:31;;;;;;;16.30;10.00;;;15.80;99.90;;;;;;5020630;28;20061;-79
2022/10/17 07:45:57;;;;;;;14.85;9.98;;;15.80;99.90;;;;;;5023684;28;20045;-80
2022/10/17 07:48:23;;;;;;;18.38;10.52;;;15.80;99.90;;;;;;5035004;28;20102;-79
2022/10/17 07:50:50;;;;;;;14.88;10.15;;;15.90;99.90;;;;;;5035854;28;20057;-80
2022/10/17 07:53:16;;;;;;;19.08;10.13;;;15.90;99.90;;;;;;5026537;28;20077;-80
2022/10/17 07:55:43;;;;;;;15.65;9.95;;;15.90;99.90;;;;;;5039031;28;20041;-79
2022/10/17 07:58:21;;;;;;;14.40;9.30;;;16.00;99.90;;;;;;5043187;28;20128;-80
2022/10/17 08:01:09;;;;;;;16.25;9.70;;;15.90;99.90;;;;;;5030564;28;20021;-79
2022/10/17 08:03:42;;;;;;;16.90;9.75;;;16.00;99.90;;;;;;5022557;28;20049;-80
2022/10/17 08:06:08;;;;;;;16.83;9.73;;;16.00;99.90;;;;;;5048637;28;20022;-80
2022/10/17 08:08:33;;;;;;;13.63;10.05;;;16.00;99.90;;;;;;5048843;28;20040;-80
2022/10/17 08:11:07;;;;;;;13.95;9.75;;;16.00;99.90;;;;;;5021429;28;20072;-80
2022/10/17 08:13:34;;;;;;;16.27;9.50;;;16.10;99.90;;;;;;5041762;28;20025;-81
2022/10/17 08:16:06;;;;;;;13.38;8.95;;;16.00;99.90;;;;;;5029597;28;20057;-80
2022/10/17 08:18:31;;;;;;;;;;;16.00;99.90;;;;;;5035555;28;20045;-79
2022/10/17 08:21:05;;;;;;;12.65;8.90;;;16.00;99.90;;;;;;5030612;28;19917;-81
2022/10/17 08:23:38;;;;;;;14.55;9.32;;;16.00;99.90;;;;;;5047316;28;20045;-79
2022/10/17 08:26:15;;;;;;;12.27;9.20;;;16.10;99.90;;;;;;5022762;28;20065;-79
2022/10/17 08:29:10;;;;;;;13.63;9.02;;;16.20;99.90;;;;;;5039414;28;20050;-81
2022/10/17 08:32:30;;;;;;;14.02;8.82;;;16.00;99.90;;;;;;5018671;28;20043;-80
2022/10/17 08:36:17;;;;;;;13.73;9.35;;;16.00;99.90;;;;;;5013254;28;20044;-80
2022/10/17 08:39:05;;;;;;;;;;;16.00;99.90;;;;;;4992194;28;20109;-80
2022/10/17 08:42:05;;;;;;;14.98;8.85;;;16.10;99.90;;;;;;5018554;28;19925;-79
2022/10/17 08:45:05;;;;;;;15.18;9.50;;;16.10;99.90;;;;;;5014987;28;20376;-79
2022/10/17 08:47:46;;;;;;;13.35;8.98;;;16.10;99.90;;;;;;5002529;28;20155;-79
2022/10/17 08:50:33;;;;;;;16.20;9.27;;;16.20;99.90;;;;;;5016314;28;20050;-79
2022/10/17 08:54:00;;;;;;;16.13;10.07;;;16.20;99.90;;;;;;5020490;28;20369;-79
2022/10/17 08:56:41;;;;;;;14.63;9.27;;;16.20;99.90;;;;;;4958083;28;20035;-78
2022/10/17 08:59:29;;;;;;;10.97;8.87;;;16.20;99.90;;;;;;5028909;28;20404;-79
2022/10/17 09:02:13;;;;;;;12.07;8.55;;;16.30;99.90;;;;;;5023634;28;20284;-79
2022/10/17 09:04:41;;;;;;;14.95;9.02;;;16.20;99.90;;;;;;5020683;28;20033;-79
2022/10/17 09:07:35;;;;;;;13.55;8.80;;;16.30;99.90;;;;;;5025995;28;20121;-80
2022/10/17 09:10:44;;;;;;;13.90;8.52;;;16.30;99.90;;;;;;5030582;28;20117;-78
2022/10/17 09:13:44;;;;;;;12.00;8.75;;;16.30;99.90;;;;;;5000766;28;20092;-79
2022/10/17 09:16:41;;;;;;;13.70;8.23;;;16.40;99.90;;;;;;5020541;28;20124;-79
2022/10/17 09:19:37;;;;;;;11.57;8.38;;;16.40;99.90;;;;;;5001957;28;20144;-79
2022/10/17 09:22:18;;;;;;;13.60;8.98;;;16.50;99.90;;;;;;5014617;28;20436;-79
2022/10/17 09:24:56;;;;;;;14.60;8.60;;;16.40;99.90;;;;;;5001278;28;20037;-81
2022/10/17 09:27:35;;;;;;;16.33;9.55;;;16.50;99.90;;;;;;5012351;28;20068;-79
2022/10/17 09:30:20;;;;;;;20.08;9.45;;;16.50;99.90;;;;;;5014882;28;20504;-79
2022/10/17 09:32:46;;;;;;;10.80;9.18;;;16.50;99.90;;;;;;4993548;28;20045;-79
2022/10/17 09:35:16;;;;;;;16.25;9.63;;;16.70;99.90;;;;;;5010662;28;20041;-78
2022/10/17 09:37:42;;;;;;;18.30;10.07;;;16.50;99.90;;;;;;5004288;28;20048;-79
2022/10/17 09:40:17;;;;;;;13.55;9.98;;;16.50;99.90;;;;;;4997192;28;20038;-78
2022/10/17 09:42:46;;;;;;;15.10;10.02;;;16.50;99.90;;;;;;5012828;28;20072;-79
2022/10/17 09:45:24;;;;;;;15.75;9.52;;;16.40;99.90;;;;;;4996512;28;20423;-78
2022/10/17 09:48:25;;;;;;;16.95;10.18;;;16.40;99.90;;;;;;5025045;28;20049;-78
2022/10/17 09:50:51;;;;;;;13.63;9.93;;;16.40;99.90;;;;;;5021809;28;20033;-78
2022/10/17 09:53:29;;;;;;;15.30;10.43;;;16.40;99.90;;;;;;4994926;28;20037;-78
2022/10/17 09:55:57;;;;;;;14.95;9.45;;;16.40;99.90;;;;;;5019832;28;20037;-79
2022/10/17 09:58:38;;;;;;;18.80;10.07;;;16.30;99.90;;;;;;5024391;28;20061;-78
2022/10/17 10:01:20;;;;;;;15.90;9.82;;;16.30;99.90;;;;;;5006127;28;20045;-78
2022/10/17 10:03:46;;;;;;;14.40;9.90;;;16.30;99.90;;;;;;5027206;28;20073;-78
2022/10/17 10:06:21;;;;;;;14.13;10.07;;;16.30;99.90;;;;;;5025013;28;20132;-78
2022/10/17 10:08:58;;;;;;;14.63;10.23;;;16.40;99.90;;;;;;5016660;28;20396;-78
2022/10/17 10:11:48;;;;;;;15.32;10.65;;;16.30;99.90;;;;;;5015926;28;20115;-78
2022/10/17 10:14:32;;;;;;;15.38;10.05;;;16.30;99.90;;;;;;5001487;28;20124;-78
2022/10/17 10:16:59;;;;;;;17.27;10.25;;;16.40;99.90;;;;;;5019598;28;20040;-78
2022/10/17 10:19:32;;;;;;;15.70;10.48;;;16.30;99.90;;;;;;5012705;28;20439;-78
2022/10/17 10:22:13;;;;;;;16.85;10.73;;;16.40;99.90;;;;;;5010467;28;20068;-78
2022/10/17 10:24:39;;;;;;;17.23;10.68;;;16.40;99.90;;;;;;5020495;28;20041;-78
2022/10/17 10:27:05;;;;;;;17.58;10.18;;;16.30;99.90;;;;;;5014547;28;20573;-78
2022/10/17 10:29:41;;;;;;;14.48;10.63;;;16.30;99.90;;;;;;5025670;28;20038;-78
2022/10/17 10:32:16;;;;;;;16.42;11.40;;;16.30;99.90;;;;;;5006562;28;20049;-78
2022/10/17 10:34:51;;;;;;;19.88;10.95;;;16.30;99.90;;;;;;4999520;28;20049;-78
2022/10/17 10:37:27;;;;;;;17.27;10.98;;;16.30;99.90;;;;;;4994965;28;20038;-78
2022/10/17 10:40:02;;;;;;;19.38;10.77;;;16.20;99.90;;;;;;4994011;28;20083;-77
2022/10/17 10:42:38;;;;;;;21.52;10.60;;;16.30;99.90;;;;;;5026309;28;20133;-77
2022/10/17 10:45:23;;;;;;;17.50;11.02;;;16.20;99.90;;;;;;5014676;28;20096;-77
2022/10/17 10:48:00;;;;;;;17.73;11.15;;;16.20;99.90;;;;;;5025800;28;20144;-77
2022/10/17 10:50:36;;;;;;;17.85;11.35;;;16.20;99.90;;;;;;5022975;28;20107;-77
2022/10/17 10:53:39;;;;;;;17.55;11.75;;;16.20;99.90;;;;;;5030819;28;20045;-77
2022/10/17 10:56:24;;;;;;;15.35;10.68;;;16.20;99.90;;;;;;4997261;28;20050;-77
2022/10/17 10:58:57;;;;;;;16.48;11.27;;;16.30;99.90;;;;;;5021239;28;20436;-77
2022/10/17 11:01:37;;;;;;;;;;;16.20;99.90;;;;;;5019583;28;20117;-78
2022/10/17 11:04:22;;;;;;;18.08;11.02;;;16.20;99.90;;;;;;5013630;28;20012;-78
2022/10/17 11:06:51;;;;;;;22.42;12.15;;;16.20;99.90;;;;;;5015409;28;20453;-77
2022/10/17 11:09:52;;;;;;;17.58;11.40;;;16.30;99.90;;;;;;5016341;28;20047;-77
2022/10/17 11:12:35;;;;;;;18.35;11.23;;;16.30;99.90;;;;;;5006741;28;20033;-77
2022/10/17 11:15:24;;;;;;;19.23;12.23;;;16.30;99.90;;;;;;5012949;28;20080;-77
2022/10/17 11:18:03;;;;;;;19.60;11.85;;;16.30;99.90;;;;;;5013054;28;20052;-78
2022/10/17 11:20:35;;;;;;;18.58;11.50;;;16.30;99.90;;;;;;5002867;28;20037;-78
2022/10/17 11:23:08;;;;;;;20.80;12.40;;;16.30;99.90;;;;;;5023346;28;20034;-78
2022/10/17 11:25:41;;;;;;;22.15;12.35;;;16.30;99.90;;;;;;5022443;28;20042;-78
2022/10/17 11:28:16;;;;;;;17.52;11.95;;;16.30;99.90;;;;;;5000781;28;20030;-78
2022/10/17 11:31:09;;;;;;;20.58;11.80;;;16.30;99.90;;;;;;5030424;28;20042;-78
2022/10/17 11:33:53;;;;;;;17.98;12.27;;;16.30;99.90;;;;;;4992528;28;20049;-78
2022/10/17 11:36:23;;;;;;;21.83;11.98;;;16.30;99.90;;;;;;5012005;28;20042;-78
2022/10/17 11:39:00;;;;;;;17.92;12.38;;;16.30;99.90;;;;;;4996272;28;20050;-78
2022/10/17 11:41:47;;;;;;;17.50;11.85;;;16.30;99.90;;;;;;5017721;28;20462;-78
2022/10/17 11:44:31;;;;;;;18.63;12.40;;;16.40;99.90;;;;;;5019206;28;20038;-78
2022/10/17 11:47:36;;;;;;;15.85;10.85;;;16.40;99.90;;;;;;4994952;28;20530;-78
2022/10/17 11:50:23;;;;;;;16.95;11.50;;;16.40;99.90;;;;;;5007363;28;20499;-78
2022/10/17 11:53:24;;;;;;;17.38;11.85;;;16.40;99.90;;;;;;5001138;28;20442;-78
2022/10/17 11:55:53;;;;;;;15.05;10.90;;;16.40;99.90;;;;;;5014997;28;20042;-78
2022/10/17 11:58:38;;;;;;;15.75;10.65;;;16.50;99.90;;;;;;5019894;28;20037;-78
2022/10/17 12:01:18;;;;;;;16.23;10.52;;;16.50;99.90;;;;;;5017968;28;20484;-78
2022/10/17 12:04:01;;;;;;;16.17;10.25;;;16.50;99.90;;;;;;5010002;28;20052;-79
2022/10/17 12:06:34;;;;;;;17.88;10.95;;;16.60;99.90;;;;;;4999614;28;20061;-79
2022/10/17 12:09:23;;;;;;;14.70;10.70;;;16.60;99.90;;;;;;5006854;28;20038;-79
2022/10/17 12:11:57;;;;;;;14.82;10.10;;;16.70;99.90;;;;;;5028735;28;20045;-79
2022/10/17 12:14:32;;;;;;;15.52;10.35;;;16.70;99.90;;;;;;5025533;28;20471;-79
2022/10/17 12:17:03;;;;;;;13.88;10.23;;;16.70;99.90;;;;;;5016324;28;20048;-79
2022/10/17 12:19:36;;;;;;;14.15;9.70;;;16.70;99.90;;;;;;5000302;28;20486;-79
2022/10/17 12:22:18;;;;;;;14.13;9.52;;;16.70;99.90;;;;;;4999911;28;20042;-79
2022/10/17 12:24:59;;;;;;;12.48;9.20;;;16.80;99.90;;;;;;5019736;28;20121;-79
2022/10/17 12:27:36;;;;;;;14.13;10.05;;;16.80;99.90;;;;;;4997738;28;20495;-79
2022/10/17 12:30:13;;;;;;;13.00;9.40;;;16.80;99.90;;;;;;5013715;28;20041;-79
2022/10/17 12:33:11;;;;;;;13.05;8.77;;;16.80;99.90;;;;;;5015053;28;20038;-79
2022/10/17 12:35:38;;;;;;;11.35;8.75;;;16.80;99.90;;;;;;4978994;28;20064;-79
2022/10/17 12:38:15;;;;;;;16.05;9.00;;;16.70;99.90;;;;;;5028412;28;20041;-79
2022/10/17 12:40:41;;;;;;;16.60;9.05;;;16.80;99.90;;;;;;4999289;28;20080;-79
2022/10/17 12:43:13;;;;;;;12.35;8.98;;;16.70;99.90;;;;;;5012903;28;20033;-79
2022/10/17 12:45:52;;;;;;;10.75;8.05;;;16.70;99.90;;;;;;5018057;28;20504;-79
2022/10/17 12:48:44;;;;;;;12.40;7.70;;;16.70;99.90;;;;;;5008785;28;20036;-79
2022/10/17 12:51:16;;;;;;;10.80;8.48;;;16.70;99.90;;;;;;4992361;28;20042;-79
2022/10/17 12:53:53;;;;;;;11.20;8.07;;;16.70;99.90;;;;;;5011075;28;20050;-79
2022/10/17 12:56:28;;;;;;;11.23;7.88;;;16.70;99.90;;;;;;5006044;28;20045;-79
2022/10/17 12:58:55;;;;;;;10.57;7.15;;;16.70;99.90;;;;;;5025332;28;20077;-79
2022/10/17 13:01:27;;;;;;;10.60;7.85;;;16.70;99.90;;;;;;5024345;28;20054;-79
2022/10/17 13:03:54;;;;;;;10.85;8.32;;;16.70;99.90;;;;;;5021061;28;20041;-78